createdAt,value
2023-01-02T00:00:24.388Z,978.19
2023-01-02T00:00:53.828Z,978.19
2023-01-02T00:01:43.177Z,978.19
2023-01-02T00:01:55.638Z,978.19
2023-01-02T00:02:26.202Z,978.09
2023-01-02T00:02:57.032Z,978.09
2023-01-02T00:03:28.795Z,978.29
2023-01-02T00:04:00.829Z,978.29
2023-01-02T00:04:31.913Z,978.09
2023-01-02T00:05:06.338Z,978.09
2023-01-02T00:05:33.106Z,978.09
2023-01-02T00:06:03.883Z,978.09
2023-01-02T00:06:34.798Z,978.19
2023-01-02T00:07:05.350Z,978.19
2023-01-02T00:07:36.496Z,978.19
2023-01-02T00:08:07.774Z,978.19
2023-01-02T00:08:38.644Z,978.19
2023-01-02T00:09:09.205Z,978.19
2023-01-02T00:09:42.026Z,978.19
2023-01-02T00:10:13.517Z,978.19
2023-01-02T00:10:43.168Z,978.19
2023-01-02T00:11:13.826Z,978.19
2023-01-02T00:11:44.505Z,978.39
2023-01-02T00:12:15.367Z,978.39
2023-01-02T00:12:45.908Z,978.29
2023-01-02T00:13:17.153Z,978.29
2023-01-02T00:13:48.500Z,978.09
2023-01-02T00:14:19.861Z,978.09
2023-01-02T00:14:52.170Z,978.09
2023-01-02T00:15:22.805Z,978.09
2023-01-02T00:15:53.172Z,978.09
2023-01-02T00:16:23.887Z,977.78
2023-01-02T00:16:54.442Z,977.78
2023-01-02T00:17:25.555Z,978.09
2023-01-02T00:17:56.265Z,978.09
2023-01-02T00:18:27.051Z,978.09
2023-01-02T00:18:58.717Z,978.09
2023-01-02T00:19:29.136Z,977.78
2023-01-02T00:20:02.208Z,977.78
2023-01-02T00:20:32.814Z,977.89
2023-01-02T00:21:03.221Z,977.89
2023-01-02T00:21:33.194Z,978.09
2023-01-02T00:22:05.008Z,978.09
2023-01-02T00:22:35.254Z,978.09
2023-01-02T00:23:06.528Z,978.09
2023-01-02T00:23:37.350Z,978.09
2023-01-02T00:24:08.242Z,978.09
2023-01-02T00:24:39.095Z,977.99
2023-01-02T00:25:12.567Z,977.99
2023-01-02T00:25:43.184Z,978.29
2023-01-02T00:26:13.093Z,978.29
2023-01-02T00:27:03.054Z,977.99
2023-01-02T00:27:14.309Z,977.99
2023-01-02T00:27:45.387Z,977.89
2023-01-02T00:28:16.283Z,977.89
2023-01-02T00:28:47.193Z,978.09
2023-01-02T00:29:18.457Z,978.09
2023-01-02T00:29:49.344Z,977.89
2023-01-02T00:30:38.693Z,977.78
2023-01-02T00:30:53.040Z,977.78
2023-01-02T00:31:22.993Z,977.89
2023-01-02T00:31:54.637Z,977.89
2023-01-02T00:32:24.481Z,977.89
2023-01-02T00:32:55.539Z,977.89
2023-01-02T00:33:26.560Z,978.09
2023-01-02T00:33:57.275Z,978.09
2023-01-02T00:34:28.623Z,977.89
2023-01-02T00:34:59.226Z,977.89
2023-01-02T00:35:32.294Z,977.89
2023-01-02T00:36:03.173Z,977.89
2023-01-02T00:36:33.300Z,978.09
2023-01-02T00:37:03.978Z,978.09
2023-01-02T00:37:34.260Z,978.29
2023-01-02T00:38:05.414Z,978.29
2023-01-02T00:38:38.387Z,977.99
2023-01-02T00:39:07.432Z,977.99
2023-01-02T00:39:38.542Z,978.09
2023-01-02T00:40:10.079Z,978.09
2023-01-02T00:40:42.151Z,978.09
2023-01-02T00:41:12.956Z,978.09
2023-01-02T00:41:43.073Z,978.09
2023-01-02T00:42:13.725Z,978.09
2023-01-02T00:42:44.241Z,978.19
2023-01-02T00:43:15.268Z,978.19
2023-01-02T00:43:46.208Z,978.39
2023-01-02T00:44:17.204Z,978.39
2023-01-02T00:44:48.752Z,978.09
2023-01-02T00:45:19.357Z,978.09
2023-01-02T00:45:51.607Z,978.19
2023-01-02T00:46:23.384Z,978.19
2023-01-02T00:46:53.732Z,978.29
2023-01-02T00:47:24.255Z,978.19
2023-01-02T00:48:13.575Z,978.19
2023-01-02T00:48:25.662Z,978.39
2023-01-02T00:48:56.248Z,978.39
2023-01-02T00:49:27.427Z,978.09
2023-01-02T00:49:58.622Z,978.09
2023-01-02T00:50:29.902Z,978.09
2023-01-02T00:51:00.851Z,978.09
2023-01-02T00:51:33.299Z,978.09
2023-01-02T00:52:03.712Z,978.09
2023-01-02T00:52:52.475Z,978.29
2023-01-02T00:53:04.811Z,978.29
2023-01-02T00:54:01.545Z,978.09
2023-01-02T00:54:06.260Z,978.09
2023-01-02T00:54:37.760Z,978.19
2023-01-02T00:55:08.848Z,978.19
2023-01-02T00:55:39.980Z,978.29
2023-01-02T00:56:11.836Z,978.29
2023-01-02T00:56:43.885Z,978.29
2023-01-02T00:57:13.248Z,978.29
2023-01-02T00:57:44.144Z,978.19
2023-01-02T00:58:14.728Z,978.19
2023-01-02T00:58:45.342Z,978.29
2023-01-02T00:59:16.469Z,978.29
2023-01-02T00:59:47.437Z,978.29
2023-01-02T01:00:34.787Z,978.29
2023-01-02T01:00:49.597Z,978.19
2023-01-02T01:01:20.813Z,978.19
2023-01-02T01:01:54.009Z,977.89
2023-01-02T01:02:23.734Z,977.99
2023-01-02T01:02:55.222Z,977.99
2023-01-02T01:03:25.072Z,978.09
2023-01-02T01:03:55.526Z,978.09
2023-01-02T01:04:44.149Z,977.89
2023-01-02T01:04:57.451Z,977.89
2023-01-02T01:05:28.403Z,978.09
2023-01-02T01:05:59.404Z,978.09
2023-01-02T01:06:31.983Z,977.89
2023-01-02T01:07:03.594Z,977.89
2023-01-02T01:07:34.261Z,977.78
2023-01-02T01:18:33.339Z,977.78
2023-01-02T01:19:01.745Z,977.99
2023-01-02T01:19:27.993Z,977.78
2023-01-02T01:20:00.493Z,977.78
2023-01-02T01:20:32.763Z,977.78
2023-01-02T01:20:59.890Z,977.78
2023-01-02T01:21:29.615Z,977.78
2023-01-02T01:22:00.437Z,977.78
2023-01-02T01:22:31.774Z,977.78
2023-01-02T01:23:03.115Z,977.78
2023-01-02T01:23:34.082Z,977.78
2023-01-02T01:24:22.251Z,977.78
2023-01-02T01:24:37.184Z,977.78
2023-01-02T01:25:10.879Z,977.78
2023-01-02T01:25:38.449Z,977.78
2023-01-02T01:26:09.524Z,977.78
2023-01-02T01:26:41.242Z,977.99
2023-01-02T01:27:42.035Z,977.89
2023-01-02T01:28:12.638Z,977.89
2023-01-02T01:28:43.638Z,977.89
2023-01-02T01:29:16.494Z,977.89
2023-01-02T01:29:45.370Z,977.89
2023-01-02T01:30:20.857Z,977.89
2023-01-02T01:30:49.188Z,977.78
2023-01-02T01:31:19.237Z,977.78
2023-01-02T01:31:49.937Z,977.78
2023-01-02T01:32:21.203Z,977.78
2023-01-02T01:32:51.879Z,977.89
2023-01-02T01:33:26.395Z,977.99
2023-01-02T01:33:58.993Z,977.99
2023-01-02T01:35:08.908Z,977.89
2023-01-02T01:35:29.534Z,977.78
2023-01-02T01:35:58.626Z,977.78
2023-01-02T01:36:29.239Z,977.99
2023-01-02T01:37:00.201Z,977.99
2023-01-02T01:37:30.884Z,977.99
2023-01-02T01:38:01.816Z,977.99
2023-01-02T01:38:33.165Z,977.68
2023-01-02T01:39:04.309Z,977.68
2023-01-02T01:39:37.384Z,977.78
2023-01-02T01:40:09.744Z,977.78
2023-01-02T01:40:39.095Z,977.78
2023-01-02T01:41:08.537Z,977.78
2023-01-02T01:41:39.229Z,977.89
2023-01-02T01:42:10.613Z,977.89
2023-01-02T01:42:40.862Z,977.78
2023-01-02T01:43:11.518Z,977.78
2023-01-02T01:43:44.390Z,977.89
2023-01-02T01:44:13.973Z,977.89
2023-01-02T01:44:48.301Z,977.68
2023-01-02T01:45:20.703Z,977.68
2023-01-02T01:45:48.448Z,977.61
2023-01-02T01:46:18.605Z,977.61
2023-01-02T01:46:49.483Z,977.68
2023-01-02T01:47:20.350Z,977.68
2023-01-02T01:47:51.377Z,977.99
2023-01-02T01:48:21.690Z,977.99
2023-01-02T01:48:52.714Z,977.68
2023-01-02T01:49:23.874Z,977.68
2023-01-02T01:50:04.700Z,977.68
2023-01-02T01:50:28.353Z,977.68
2023-01-02T01:50:58.806Z,977.68
2023-01-02T01:51:30.720Z,977.61
2023-01-02T01:51:59.452Z,977.61
2023-01-02T01:52:30.418Z,977.78
2023-01-02T01:53:06.129Z,977.78
2023-01-02T01:53:32.293Z,977.68
2023-01-02T01:54:03.650Z,977.68
2023-01-02T01:54:33.857Z,977.61
2023-01-02T01:55:08.633Z,977.61
2023-01-02T01:55:37.575Z,977.61
2023-01-02T01:56:08.782Z,977.61
2023-01-02T01:56:39.666Z,977.61
2023-01-02T01:57:10.022Z,977.61
2023-01-02T01:57:39.864Z,977.78
2023-01-02T01:58:11.932Z,977.78
2023-01-02T01:58:42.581Z,977.68
2023-01-02T01:59:13.153Z,977.68
2023-01-02T01:59:44.159Z,977.61
2023-01-02T02:00:17.936Z,977.61
2023-01-02T02:00:48.313Z,977.61
2023-01-02T02:01:18.781Z,977.61
2023-01-02T02:01:49.275Z,977.51
2023-01-02T02:02:19.529Z,977.51
2023-01-02T02:02:50.355Z,977.68
2023-01-02T02:03:21.026Z,977.68
2023-01-02T02:03:52.546Z,977.68
2023-01-02T02:04:24.849Z,977.68
2023-01-02T02:04:54.124Z,977.68
2023-01-02T02:05:31.059Z,977.68
2023-01-02T02:05:57.361Z,977.68
2023-01-02T02:06:32.017Z,977.61
2023-01-02T02:06:59.139Z,977.61
2023-01-02T02:07:29.398Z,977.78
2023-01-02T02:08:00.266Z,977.78
2023-01-02T02:08:31.330Z,977.68
2023-01-02T02:09:02.288Z,977.68
2023-01-02T02:09:33.240Z,977.68
2023-01-02T02:10:04.471Z,977.68
2023-01-02T02:10:34.987Z,977.61
2023-01-02T02:11:08.271Z,977.61
2023-01-02T02:11:38.562Z,977.61
2023-01-02T02:12:09.067Z,977.61
2023-01-02T02:12:39.785Z,977.61
2023-01-02T02:13:10.343Z,977.61
2023-01-02T02:13:40.803Z,977.68
2023-01-02T02:14:11.695Z,977.68
2023-01-02T02:14:42.773Z,977.78
2023-01-02T02:15:14.126Z,977.78
2023-01-02T02:15:45.364Z,977.61
2023-01-02T02:16:17.208Z,977.61
2023-01-02T02:16:48.423Z,977.78
2023-01-02T02:17:19.677Z,977.78
2023-01-02T02:17:49.313Z,977.68
2023-01-02T02:18:20.022Z,977.68
2023-01-02T02:18:51.092Z,977.51
2023-01-02T02:19:21.780Z,977.68
2023-01-02T02:19:53.393Z,977.68
2023-01-02T02:20:24.314Z,977.61
2023-01-02T02:20:55.392Z,977.61
2023-01-02T02:21:28.922Z,977.68
2023-01-02T02:21:58.807Z,977.68
2023-01-02T02:22:28.987Z,977.68
2023-01-02T02:22:59.406Z,977.68
2023-01-02T02:23:30.184Z,977.61
2023-01-02T02:24:20.059Z,977.61
2023-01-02T02:24:32.206Z,977.51
2023-01-02T02:25:03.425Z,977.51
2023-01-02T02:25:34.240Z,977.61
2023-01-02T02:26:05.324Z,977.61
2023-01-02T02:26:37.841Z,977.51
2023-01-02T02:27:08.793Z,977.51
2023-01-02T02:27:39.205Z,977.51
2023-01-02T02:28:11.332Z,977.51
2023-01-02T02:28:40.159Z,977.61
2023-01-02T02:29:11.444Z,977.61
2023-01-02T02:29:42.024Z,977.61
2023-01-02T02:30:14.150Z,977.61
2023-01-02T02:30:55.685Z,977.61
2023-01-02T02:31:15.647Z,977.61
2023-01-02T02:31:48.597Z,977.61
2023-01-02T02:33:11.469Z,977.51
2023-01-02T02:33:19.694Z,977.51
2023-01-02T02:33:50.357Z,977.61
2023-01-02T02:34:21.689Z,977.61
2023-01-02T02:35:10.925Z,977.51
2023-01-02T02:35:22.400Z,977.41
2023-01-02T02:35:54.933Z,977.41
2023-01-02T02:36:31.856Z,977.41
2023-01-02T02:36:57.465Z,977.41
2023-01-02T02:38:19.968Z,977.61
2023-01-02T02:38:47.491Z,977.41
2023-01-02T02:39:00.667Z,977.41
2023-01-02T02:39:31.336Z,977.51
2023-01-02T02:40:02.582Z,977.51
2023-01-02T02:40:33.533Z,977.51
2023-01-02T02:41:04.133Z,977.51
2023-01-02T02:41:35.623Z,977.51
2023-01-02T02:42:05.877Z,977.51
2023-01-02T02:42:40.897Z,977.41
2023-01-02T02:43:09.958Z,977.41
2023-01-02T02:43:50.082Z,977.41
2023-01-02T02:44:10.647Z,977.41
2023-01-02T02:44:41.452Z,977.61
2023-01-02T02:45:13.284Z,977.61
2023-01-02T02:45:43.294Z,977.61
2023-01-02T02:46:14.929Z,977.61
2023-01-02T02:46:45.458Z,977.31
2023-01-02T02:47:48.396Z,977.21
2023-01-02T02:48:18.185Z,977.21
2023-01-02T02:48:51.215Z,977.61
2023-01-02T02:49:21.110Z,977.61
2023-01-02T02:49:55.188Z,977.21
2023-01-02T02:50:24.828Z,977.31
2023-01-02T02:50:53.679Z,977.31
2023-01-02T02:51:24.647Z,977.61
2023-01-02T02:52:12.751Z,977.61
2023-01-02T02:52:27.572Z,977.41
2023-01-02T02:52:57.615Z,977.41
2023-01-02T02:53:29.368Z,977.31
2023-01-02T02:54:00.294Z,977.31
2023-01-02T02:54:30.785Z,977.41
2023-01-02T02:55:01.883Z,977.41
2023-01-02T02:55:32.556Z,977.51
2023-01-02T02:56:03.260Z,977.51
2023-01-02T02:56:33.988Z,977.41
2023-01-02T02:57:06.067Z,977.41
2023-01-02T02:57:36.474Z,977.31
2023-01-02T02:58:07.262Z,977.31
2023-01-02T02:59:11.073Z,977.21
2023-01-02T02:59:41.029Z,977.41
2023-01-02T03:03:23.863Z,977.41
2023-01-02T03:04:40.449Z,977.21
2023-01-02T03:04:52.325Z,977.41
2023-01-02T03:05:21.657Z,977.41
2023-01-02T03:06:22.821Z,977.31
2023-01-02T03:06:54.621Z,977.31
2023-01-02T03:07:27.120Z,977.41
2023-01-02T03:07:57.097Z,977.41
2023-01-02T03:08:32.889Z,977.31
2023-01-02T03:08:59.869Z,977.31
2023-01-02T03:09:30.331Z,977.21
2023-01-02T03:10:01.084Z,977.21
2023-01-02T03:10:33.099Z,977.11
2023-01-02T03:11:02.621Z,977.11
2023-01-02T03:11:33.254Z,977.31
2023-01-02T03:12:03.965Z,977.31
2023-01-02T03:12:34.983Z,977.21
2023-01-02T03:13:06.644Z,977.21
2023-01-02T03:13:41.675Z,977.21
2023-01-02T03:14:12.324Z,977.21
2023-01-02T03:14:40.796Z,977.41
2023-01-02T03:15:13.332Z,977.41
2023-01-02T03:15:41.336Z,977.41
2023-01-02T03:16:12.380Z,977.41
2023-01-02T03:16:42.889Z,977.41
2023-01-02T03:17:14.559Z,977.41
2023-01-02T03:17:45.353Z,977.41
2023-01-02T03:18:16.419Z,977.41
2023-01-02T03:18:47.089Z,977.21
2023-01-02T03:19:19.447Z,977.21
2023-01-02T03:19:56.099Z,977.41
2023-01-02T03:20:24.275Z,977.41
2023-01-02T03:20:51.224Z,977.31
2023-01-02T03:21:26.552Z,977.41
2023-01-02T03:21:53.280Z,977.41
2023-01-02T03:22:24.173Z,977.41
2023-01-02T03:22:55.612Z,977.41
2023-01-02T03:23:26.376Z,977.31
2023-01-02T03:23:57.266Z,977.31
2023-01-02T03:24:29.881Z,977.21
2023-01-02T03:25:00.804Z,977.21
2023-01-02T03:25:31.481Z,977.51
2023-01-02T03:26:01.957Z,977.51
2023-01-02T03:26:32.049Z,977.51
2023-01-02T03:27:03.294Z,977.51
2023-01-02T03:27:34.466Z,977.21
2023-01-02T03:32:15.767Z,977.31
2023-01-02T03:33:43.747Z,977.51
2023-01-02T03:34:20.322Z,977.41
2023-01-02T03:34:59.359Z,977.41
2023-01-02T03:35:19.742Z,977.41
2023-01-02T03:35:49.895Z,977.41
2023-01-02T03:36:21.671Z,977.41
2023-01-02T03:36:51.907Z,977.31
2023-01-02T03:37:23.241Z,977.31
2023-01-02T03:37:55.479Z,977.31
2023-01-02T03:38:26.724Z,977.31
2023-01-02T03:38:57.289Z,977.31
2023-01-02T03:39:28.196Z,977.41
2023-01-02T03:39:58.618Z,977.41
2023-01-02T03:40:30.764Z,977.31
2023-01-02T03:41:01.246Z,977.31
2023-01-02T03:41:37.063Z,977.21
2023-01-02T03:42:02.552Z,977.21
2023-01-02T03:42:33.467Z,977.21
2023-01-02T03:43:05.513Z,977.21
2023-01-02T03:43:38.320Z,977.21
2023-01-02T03:44:07.463Z,977.21
2023-01-02T03:44:38.395Z,977.51
2023-01-02T03:45:10.369Z,977.51
2023-01-02T03:45:39.856Z,977.21
2023-01-02T03:46:10.481Z,977.21
2023-01-02T03:46:42.068Z,977.41
2023-01-02T03:47:12.563Z,977.41
2023-01-02T03:47:43.212Z,977.21
2023-01-02T03:48:16.175Z,977.21
2023-01-02T03:48:52.072Z,977.31
2023-01-02T03:49:18.086Z,977.31
2023-01-02T03:49:48.082Z,977.21
2023-01-02T03:50:19.131Z,977.21
2023-01-02T03:50:49.077Z,977.11
2023-01-02T03:51:25.494Z,977.11
2023-01-02T03:51:51.205Z,977.21
2023-01-02T03:52:25.945Z,977.21
2023-01-02T03:52:57.065Z,977.21
2023-01-02T03:53:24.340Z,977.21
2023-01-02T03:53:57.354Z,977.21
2023-01-02T03:54:28.176Z,977.41
2023-01-02T03:54:58.026Z,977.41
2023-01-02T03:55:28.520Z,977.31
2023-01-02T03:55:59.706Z,977.31
2023-01-02T03:56:30.202Z,977.31
2023-01-02T03:57:02.837Z,977.31
2023-01-02T03:57:32.392Z,977.31
2023-01-02T03:58:03.439Z,977.31
2023-01-02T03:58:34.423Z,977.31
2023-01-02T03:59:07.295Z,977.31
2023-01-02T03:59:38.618Z,977.41
2023-01-02T04:00:08.179Z,977.41
2023-01-02T04:01:27.149Z,977.51
2023-01-02T04:01:42.381Z,977.31
2023-01-02T04:02:14.954Z,977.31
2023-01-02T04:02:43.809Z,977.51
2023-01-02T04:03:13.648Z,977.51
2023-01-02T04:03:44.301Z,977.61
2023-01-02T04:04:15.304Z,977.61
2023-01-02T04:04:50.676Z,977.51
2023-01-02T04:05:18.611Z,977.51
2023-01-02T04:05:48.028Z,977.41
2023-01-02T04:06:19.399Z,977.41
2023-01-02T04:06:51.145Z,977.51
2023-01-02T04:07:22.982Z,977.51
2023-01-02T04:07:53.525Z,977.51
2023-01-02T04:08:24.334Z,977.51
2023-01-02T04:08:54.019Z,977.51
2023-01-02T04:09:25.036Z,977.51
2023-01-02T04:09:56.295Z,977.51
2023-01-02T04:10:27.400Z,977.31
2023-01-02T04:10:58.863Z,977.31
2023-01-02T04:11:29.377Z,977.41
2023-01-02T04:12:02.619Z,977.41
2023-01-02T04:12:33.141Z,977.51
2023-01-02T04:13:03.593Z,977.51
2023-01-02T04:13:33.676Z,977.41
2023-01-02T04:14:14.350Z,977.41
2023-01-02T04:14:35.567Z,977.41
2023-01-02T04:15:06.989Z,977.41
2023-01-02T04:15:37.177Z,977.41
2023-01-02T04:16:08.237Z,977.41
2023-01-02T04:16:39.210Z,977.51
2023-01-02T04:17:22.936Z,977.51
2023-01-02T04:17:42.705Z,977.51
2023-01-02T04:18:13.363Z,977.51
2023-01-02T04:18:48.607Z,977.51
2023-01-02T04:19:14.311Z,977.51
2023-01-02T04:19:45.417Z,977.41
2023-01-02T04:20:47.813Z,977.41
2023-01-02T04:21:18.289Z,977.41
2023-01-02T04:21:49.398Z,977.51
2023-01-02T04:28:02.513Z,977.51
2023-01-02T04:29:04.742Z,977.31
2023-01-02T04:29:36.863Z,977.31
2023-01-02T04:30:10.155Z,977.31
2023-01-02T04:30:46.223Z,977.51
2023-01-02T04:31:07.417Z,977.51
2023-01-02T04:31:38.987Z,977.51
2023-01-02T04:32:09.637Z,977.51
2023-01-02T04:32:46.680Z,977.51
2023-01-02T04:33:11.986Z,977.51
2023-01-02T04:33:42.804Z,977.41
2023-01-02T04:34:14.436Z,977.41
2023-01-02T04:34:45.282Z,977.51
2023-01-02T04:35:16.489Z,977.51
2023-01-02T04:35:47.148Z,977.31
2023-01-02T04:36:17.550Z,977.31
2023-01-02T04:36:48.331Z,977.31
2023-01-02T04:37:19.445Z,977.31
2023-01-02T04:37:50.215Z,977.51
2023-01-02T04:38:52.432Z,977.31
2023-01-02T04:39:24.073Z,977.68
2023-01-02T04:39:56.252Z,977.68
2023-01-02T04:40:27.280Z,977.41
2023-01-02T04:40:57.176Z,977.41
2023-01-02T04:41:27.950Z,977.51
2023-01-02T04:41:58.526Z,977.51
2023-01-02T04:42:29.633Z,977.51
2023-01-02T04:43:00.778Z,977.51
2023-01-02T04:43:31.114Z,977.51
2023-01-02T04:44:02.627Z,977.51
2023-01-02T04:44:35.545Z,977.41
2023-01-02T04:45:07.871Z,977.41
2023-01-02T04:45:36.955Z,977.41
2023-01-02T04:46:07.946Z,977.41
2023-01-02T04:46:37.950Z,977.51
2023-01-02T04:47:09.022Z,977.51
2023-01-02T04:47:39.381Z,977.41
2023-01-02T04:48:10.889Z,977.41
2023-01-02T04:49:12.245Z,977.41
2023-01-02T04:49:46.431Z,977.51
2023-01-02T04:50:16.841Z,977.51
2023-01-02T04:50:46.968Z,977.61
2023-01-02T04:51:17.361Z,977.61
2023-01-02T04:52:06.938Z,977.51
2023-01-02T04:52:19.024Z,977.51
2023-01-02T04:52:49.226Z,977.31
2023-01-02T04:53:20.988Z,977.31
2023-01-02T04:53:51.414Z,977.41
2023-01-02T04:54:22.455Z,977.31
2023-01-02T04:54:53.188Z,977.31
2023-01-02T04:55:27.058Z,977.61
2023-01-02T04:55:56.809Z,977.61
2023-01-02T04:56:27.556Z,977.21
2023-01-02T04:56:57.998Z,977.21
2023-01-02T04:57:28.516Z,977.41
2023-01-02T04:57:59.553Z,977.41
2023-01-02T04:58:30.537Z,977.41
2023-01-02T04:59:01.753Z,977.41
2023-01-02T04:59:32.382Z,977.41
2023-01-02T05:00:10.479Z,977.41
2023-01-02T05:00:51.942Z,977.41
2023-01-02T05:01:05.543Z,977.41
2023-01-02T05:01:36.442Z,977.51
2023-01-02T05:02:09.350Z,977.51
2023-01-02T05:02:40.254Z,977.41
2023-01-02T05:03:10.130Z,977.41
2023-01-02T05:03:40.822Z,977.31
2023-01-02T05:04:11.496Z,977.31
2023-01-02T05:04:42.713Z,977.41
2023-01-02T05:05:13.312Z,977.41
2023-01-02T05:05:44.581Z,977.21
2023-01-02T05:06:15.196Z,977.21
2023-01-02T05:06:47.817Z,977.41
2023-01-02T05:07:18.431Z,977.41
2023-01-02T05:07:50.584Z,977.51
2023-01-02T05:08:20.619Z,977.51
2023-01-02T05:08:50.986Z,977.51
2023-01-02T05:09:21.062Z,977.51
2023-01-02T05:09:53.172Z,977.41
2023-01-02T05:10:27.542Z,977.31
2023-01-02T05:10:54.729Z,977.31
2023-01-02T05:11:25.634Z,977.61
2023-01-02T05:11:56.422Z,977.61
2023-01-02T05:12:29.415Z,977.41
2023-01-02T05:13:00.027Z,977.41
2023-01-02T05:13:29.446Z,977.51
2023-01-02T05:14:07.152Z,977.51
2023-01-02T05:14:32.095Z,977.41
2023-01-02T05:15:03.353Z,977.41
2023-01-02T05:15:33.989Z,977.51
2023-01-02T05:16:04.882Z,977.51
2023-01-02T05:16:35.312Z,977.51
2023-01-02T05:17:07.972Z,977.51
2023-01-02T05:17:39.103Z,977.68
2023-01-02T05:18:25.616Z,977.51
2023-01-02T05:18:40.052Z,977.51
2023-01-02T05:19:10.612Z,977.51
2023-01-02T05:19:41.329Z,977.51
2023-01-02T05:20:13.725Z,977.51
2023-01-02T05:20:43.357Z,977.51
2023-01-02T05:21:46.088Z,977.21
2023-01-02T05:22:16.825Z,977.21
2023-01-02T05:22:48.799Z,977.31
2023-01-02T05:23:19.923Z,977.31
2023-01-02T05:23:50.501Z,977.31
2023-01-02T05:24:21.157Z,977.31
2023-01-02T05:24:52.090Z,977.31
2023-01-02T05:25:22.582Z,977.51
2023-01-02T05:25:53.262Z,977.51
2023-01-02T05:26:24.664Z,977.41
2023-01-02T05:26:55.649Z,977.41
2023-01-02T05:27:26.275Z,977.31
2023-01-02T05:27:58.507Z,977.31
2023-01-02T05:28:33.775Z,977.41
2023-01-02T05:29:00.366Z,977.41
2023-01-02T05:29:31.337Z,977.41
2023-01-02T05:30:02.110Z,977.41
2023-01-02T05:30:32.643Z,977.41
2023-01-02T05:31:04.097Z,977.41
2023-01-02T05:31:34.824Z,977.31
2023-01-02T05:32:06.048Z,977.31
2023-01-02T05:32:36.640Z,977.41
2023-01-02T05:33:09.299Z,977.41
2023-01-02T05:33:39.827Z,977.41
2023-01-02T05:34:09.590Z,977.41
2023-01-02T05:34:40.692Z,977.31
2023-01-02T05:35:11.465Z,977.31
2023-01-02T05:35:42.575Z,977.41
2023-01-02T05:36:13.504Z,977.41
2023-01-02T05:36:44.503Z,977.51
2023-01-02T05:37:15.546Z,977.51
2023-01-02T05:37:46.673Z,977.41
2023-01-02T05:38:19.263Z,977.41
2023-01-02T05:38:50.476Z,977.61
2023-01-02T05:39:19.755Z,977.61
2023-01-02T05:39:50.778Z,977.41
2023-01-02T05:40:21.716Z,977.41
2023-01-02T05:40:52.616Z,977.31
2023-01-02T05:41:23.578Z,977.41
2023-01-02T05:41:54.562Z,977.41
2023-01-02T05:42:26.107Z,977.51
2023-01-02T05:43:08.888Z,977.51
2023-01-02T05:43:29.357Z,977.51
2023-01-02T05:43:59.842Z,977.51
2023-01-02T05:44:30.660Z,977.61
2023-01-02T05:45:01.095Z,977.61
2023-01-02T05:45:31.724Z,977.51
2023-01-02T05:46:02.745Z,977.51
2023-01-02T05:46:33.646Z,977.68
2023-01-02T05:47:05.152Z,977.68
2023-01-02T05:47:35.872Z,977.61
2023-01-02T05:48:07.535Z,977.61
2023-01-02T05:48:39.954Z,977.68
2023-01-02T05:49:09.477Z,977.68
2023-01-02T05:49:39.952Z,977.51
2023-01-02T05:50:11.479Z,977.51
2023-01-02T05:51:12.650Z,977.51
2023-01-02T05:51:44.055Z,977.78
2023-01-02T05:52:15.233Z,977.78
2023-01-02T05:52:46.175Z,977.61
2023-01-02T05:53:16.684Z,977.61
2023-01-02T05:53:51.242Z,977.51
2023-01-02T05:54:37.176Z,977.51
2023-01-02T05:54:50.244Z,977.51
2023-01-02T05:55:22.195Z,977.51
2023-01-02T05:55:52.804Z,977.78
2023-01-02T05:56:22.773Z,977.78
2023-01-02T05:56:56.280Z,977.78
2023-01-02T05:57:26.258Z,977.51
2023-01-02T05:57:57.581Z,977.51
2023-01-02T05:58:28.644Z,977.78
2023-01-02T05:58:59.204Z,977.78
2023-01-02T05:59:31.074Z,977.68
2023-01-02T06:00:01.288Z,977.68
2023-01-02T06:00:32.887Z,977.89
2023-01-02T06:01:01.664Z,977.89
2023-01-02T06:01:33.445Z,977.78
2023-01-02T06:02:20.523Z,977.78
2023-01-02T06:02:35.275Z,977.99
2023-01-02T06:03:05.574Z,977.99
2023-01-02T06:03:53.891Z,977.61
2023-01-02T06:04:09.261Z,977.61
2023-01-02T06:05:11.176Z,977.61
2023-01-02T06:05:41.371Z,977.61
2023-01-02T06:06:11.673Z,977.61
2023-01-02T06:06:46.919Z,977.68
2023-01-02T06:07:13.314Z,977.68
2023-01-02T06:07:44.777Z,977.99
2023-01-02T06:08:15.556Z,977.99
2023-01-02T06:08:46.762Z,977.68
2023-01-02T06:09:18.422Z,977.68
2023-01-02T06:09:50.666Z,977.89
2023-01-02T06:10:21.670Z,977.89
2023-01-02T06:10:51.381Z,977.99
2023-01-02T06:11:23.135Z,977.99
2023-01-02T06:11:52.530Z,977.68
2023-01-02T06:12:23.487Z,977.89
2023-01-02T06:12:55.271Z,977.89
2023-01-02T06:13:26.178Z,977.68
2023-01-02T06:13:56.994Z,977.68
2023-01-02T06:14:28.462Z,977.68
2023-01-02T06:15:02.040Z,977.68
2023-01-02T06:15:31.267Z,977.99
2023-01-02T06:16:01.654Z,977.99
2023-01-02T06:16:32.218Z,977.78
2023-01-02T06:17:03.328Z,977.78
2023-01-02T06:17:35.595Z,977.99
2023-01-02T06:18:04.534Z,977.99
2023-01-02T06:18:35.842Z,977.89
2023-01-02T06:19:06.813Z,977.89
2023-01-02T06:19:38.431Z,977.99
2023-01-02T06:20:40.980Z,977.99
2023-01-02T06:21:10.983Z,977.99
2023-01-02T06:21:41.682Z,978.09
2023-01-02T06:22:12.622Z,978.09
2023-01-02T06:22:43.545Z,977.89
2023-01-02T06:23:16.172Z,977.89
2023-01-02T06:23:45.741Z,977.89
2023-01-02T06:24:17.444Z,977.89
2023-01-02T06:24:47.529Z,977.99
2023-01-02T06:25:20.198Z,977.99
2023-01-02T06:25:50.723Z,977.89
2023-01-02T06:26:21.730Z,977.89
2023-01-02T06:27:10.838Z,977.78
2023-01-02T06:27:22.737Z,977.99
2023-01-02T06:27:54.051Z,977.99
2023-01-02T06:28:25.087Z,978.09
2023-01-02T06:28:55.860Z,978.09
2023-01-02T06:29:26.746Z,977.89
2023-01-02T06:29:58.698Z,977.89
2023-01-02T06:30:30.830Z,977.89
2023-01-02T06:31:02.583Z,977.89
2023-01-02T06:31:32.415Z,977.68
2023-01-02T06:32:33.242Z,977.89
2023-01-02T06:33:03.756Z,977.89
2023-01-02T06:33:34.610Z,977.78
2023-01-02T06:34:06.195Z,977.78
2023-01-02T06:34:37.106Z,977.89
2023-01-02T06:39:28.435Z,977.78
2023-01-02T06:40:37.943Z,977.78
2023-01-02T06:40:49.786Z,977.68
2023-01-02T06:52:13.183Z,977.68
2023-01-02T06:52:42.085Z,978.09
2023-01-02T06:53:14.433Z,978.09
2023-01-02T06:53:45.911Z,977.99
2023-01-02T06:54:47.388Z,977.89
2023-01-02T06:55:16.731Z,977.89
2023-01-02T06:55:48.882Z,978.09
2023-01-02T06:56:19.882Z,978.09
2023-01-02T06:56:49.739Z,977.89
2023-01-02T06:57:37.901Z,977.89
2023-01-02T06:57:51.676Z,977.89
2023-01-02T06:58:23.141Z,977.78
2023-01-02T06:58:55.597Z,977.78
2023-01-02T06:59:31.464Z,977.68
2023-01-02T06:59:56.435Z,977.68
2023-01-02T07:00:26.976Z,977.61
2023-01-02T07:00:57.483Z,977.61
2023-01-02T07:01:29.011Z,977.68
2023-01-02T07:02:00.120Z,977.68
2023-01-02T07:02:31.043Z,977.89
2023-01-02T07:03:02.070Z,977.89
2023-01-02T07:03:32.763Z,977.78
2023-01-02T07:04:05.337Z,977.78
2023-01-02T07:04:36.385Z,977.68
2023-01-02T07:05:07.489Z,977.68
2023-01-02T07:05:37.375Z,977.68
2023-01-02T07:06:07.757Z,977.68
2023-01-02T07:06:40.630Z,977.68
2023-01-02T07:07:13.159Z,977.68
2023-01-02T07:07:49.726Z,977.89
2023-01-02T07:08:17.930Z,977.89
2023-01-02T07:08:43.294Z,977.89
2023-01-02T07:09:15.726Z,977.89
2023-01-02T07:09:51.044Z,977.68
2023-01-02T07:10:17.185Z,977.68
2023-01-02T07:10:52.708Z,977.99
2023-01-02T07:11:18.166Z,977.99
2023-01-02T07:11:48.689Z,977.78
2023-01-02T07:12:20.039Z,977.78
2023-01-02T07:12:50.991Z,977.89
2023-01-02T07:13:21.974Z,977.68
2023-01-02T07:13:52.996Z,977.68
2023-01-02T07:14:25.527Z,977.78
2023-01-02T07:14:57.270Z,977.78
2023-01-02T07:15:27.887Z,977.89
2023-01-02T07:15:57.731Z,977.89
2023-01-02T07:16:28.855Z,977.89